Time;durP1;ratioP1;P1;durP2;ratioP2;P2;SDS_P1;SDS_P2;PMS_P1;PMS_P2;Temp;Humidity;BMP_temperature;BMP_pressure;BME280_temperature;BME280_humidity;BME280_pressure;Samples;Min_cycle;Max_cycle;Signal;HPM_P1;HPM_P2
2022/03/12 00:01:47;;;;;;;8.20;3.17;;;17.20;27.90;;;;;;6226644;28;20120;-68
2022/03/12 00:04:48;;;;;;;5.97;2.65;;;17.20;27.60;;;;;;6221890;28;20038;-68
2022/03/12 00:07:51;;;;;;;8.50;2.92;;;17.20;27.40;;;;;;6227236;28;20470;-68
2022/03/12 00:10:52;;;;;;;7.15;2.88;;;17.30;27.00;;;;;;6231547;28;20088;-68
2022/03/12 00:13:54;;;;;;;5.55;2.67;;;17.30;26.80;;;;;;6227070;28;20030;-68
2022/03/12 00:16:55;;;;;;;6.05;2.53;;;17.30;26.80;;;;;;6252077;28;20481;-68
2022/03/12 00:19:57;;;;;;;6.70;2.80;;;17.30;26.50;;;;;;6250484;28;20034;-68
2022/03/12 00:22:58;;;;;;;6.10;2.38;;;17.30;26.20;;;;;;6257288;28;20439;-68
2022/03/12 00:26:00;;;;;;;7.70;2.90;;;17.40;26.30;;;;;;6261198;28;20041;-68
2022/03/12 00:29:01;;;;;;;11.20;4.55;;;17.40;26.10;;;;;;6256100;28;20033;-68
2022/03/12 00:32:05;;;;;;;14.75;4.55;;;17.40;26.50;;;;;;6250129;28;20044;-68
2022/03/12 00:35:09;;;;;;;8.90;3.80;;;17.40;27.20;;;;;;6250010;28;20051;-68
2022/03/12 00:38:10;;;;;;;9.38;4.25;;;17.30;27.70;;;;;;6257476;28;20076;-68
2022/03/12 00:41:13;;;;;;;11.45;4.82;;;17.20;28.20;;;;;;6259665;28;20125;-68
2022/03/12 00:44:17;;;;;;;11.13;4.30;;;17.10;28.50;;;;;;6247580;28;20047;-68
2022/03/12 00:47:18;;;;;;;11.07;4.70;;;17.00;28.90;;;;;;6263651;28;20041;-68
2022/03/12 00:50:19;;;;;;;11.82;4.43;;;16.90;29.60;;;;;;6245572;28;20474;-68
2022/03/12 00:53:20;;;;;;;15.25;5.65;;;16.80;30.20;;;;;;6273495;28;20099;-68
2022/03/12 00:56:21;;;;;;;14.55;4.75;;;16.60;30.70;;;;;;6260695;28;20071;-68
2022/03/12 00:59:22;;;;;;;13.68;4.50;;;16.50;30.80;;;;;;6265532;28;20045;-68
2022/03/12 01:02:23;;;;;;;9.30;4.43;;;16.40;30.80;;;;;;6265089;28;20048;-68
2022/03/12 01:05:59;;;;;;;14.13;4.45;;;16.40;31.10;;;;;;6265689;28;20061;-68
2022/03/12 01:09:00;;;;;;;8.30;3.83;;;16.30;31.30;;;;;;6256548;28;20041;-68
2022/03/12 01:12:02;;;;;;;10.02;4.20;;;16.20;31.30;;;;;;6265888;28;20030;-67
2022/03/12 01:15:04;;;;;;;9.85;4.55;;;16.20;31.50;;;;;;6259788;28;20038;-67
2022/03/12 01:18:13;;;;;;;8.82;3.63;;;16.10;31.40;;;;;;6263485;28;20358;-69
2022/03/12 01:21:20;;;;;;;8.88;3.42;;;16.20;31.40;;;;;;6262739;28;20135;-69
2022/03/12 01:24:21;;;;;;;10.73;3.65;;;16.20;31.20;;;;;;6253076;28;20118;-67
2022/03/12 01:27:21;;;;;;;7.40;3.78;;;16.20;30.70;;;;;;6259502;28;20029;-68
2022/03/12 01:30:27;;;;;;;12.05;3.15;;;16.20;30.60;;;;;;6267426;28;20044;-68
2022/03/12 01:33:29;;;;;;;5.78;3.00;;;16.30;30.80;;;;;;6270445;28;20116;-68
2022/03/12 01:36:31;;;;;;;6.30;2.50;;;16.20;30.60;;;;;;6266577;28;20048;-68
2022/03/12 01:39:32;;;;;;;3.55;2.05;;;16.30;30.30;;;;;;6261936;28;20454;-68
2022/03/12 01:42:34;;;;;;;6.20;2.53;;;16.30;30.00;;;;;;6263556;28;20120;-68
2022/03/12 01:45:36;;;;;;;5.72;2.63;;;16.40;29.90;;;;;;6260561;28;20037;-68
2022/03/12 01:48:49;;;;;;;5.55;2.53;;;16.50;29.70;;;;;;6243569;28;20063;-68
2022/03/12 01:51:54;;;;;;;6.80;2.25;;;16.50;29.50;;;;;;6246904;28;20112;-68
2022/03/12 01:54:55;;;;;;;4.72;2.05;;;16.60;29.40;;;;;;6259320;28;20037;-68
2022/03/12 01:58:02;;;;;;;5.28;2.30;;;16.70;29.30;;;;;;6261433;28;20048;-68
2022/03/12 02:01:03;;;;;;;4.40;2.17;;;16.70;29.00;;;;;;6261341;28;20025;-68
2022/03/12 02:04:07;;;;;;;5.60;2.55;;;16.80;28.80;;;;;;6255340;28;20086;-68
2022/03/12 02:07:08;;;;;;;9.15;3.03;;;16.80;28.80;;;;;;6258968;28;20067;-68
2022/03/12 02:10:09;;;;;;;5.78;2.83;;;16.80;29.00;;;;;;6261577;28;20429;-69
2022/03/12 02:13:11;;;;;;;7.05;2.78;;;16.70;29.20;;;;;;6262476;28;20450;-68
2022/03/12 02:16:12;;;;;;;8.52;3.08;;;16.70;29.30;;;;;;6240854;28;20068;-68
2022/03/12 02:19:13;;;;;;;8.18;3.35;;;16.70;29.40;;;;;;6261454;28;20041;-68
2022/03/12 02:22:17;;;;;;;17.90;3.83;;;16.60;29.40;;;;;;6244600;28;20410;-68
2022/03/12 02:25:28;;;;;;;5.53;2.88;;;16.60;30.10;;;;;;6265402;28;20036;-68
2022/03/12 02:28:29;;;;;;;8.38;3.55;;;16.50;29.80;;;;;;6237563;28;20094;-69
2022/03/12 02:31:30;;;;;;;8.57;3.50;;;16.50;30.00;;;;;;6259247;28;20038;-68
2022/03/12 02:34:38;;;;;;;12.90;3.72;;;16.40;30.10;;;;;;6255778;28;20345;-68
2022/03/12 02:37:47;;;;;;;7.75;3.15;;;16.30;30.60;;;;;;6259480;28;20124;-68
2022/03/12 02:40:48;;;;;;;6.60;3.15;;;16.20;31.00;;;;;;6252435;28;20033;-68
2022/03/12 02:43:50;;;;;;;9.27;3.22;;;16.10;31.80;;;;;;6268412;28;20111;-68
2022/03/12 02:47:11;;;;;;;11.98;4.00;;;16.00;31.70;;;;;;6259046;28;20040;-68
2022/03/12 02:50:13;;;;;;;8.88;3.58;;;15.90;32.10;;;;;;6237820;28;20114;-68
2022/03/12 02:53:16;;;;;;;7.32;3.38;;;15.80;32.30;;;;;;6260633;28;20051;-67
2022/03/12 02:56:19;;;;;;;7.80;3.20;;;15.80;32.60;;;;;;6252768;28;20048;-68
2022/03/12 02:59:20;;;;;;;8.63;3.50;;;15.70;32.90;;;;;;6258269;28;20048;-67
2022/03/12 03:02:35;;;;;;;6.18;3.03;;;15.60;33.10;;;;;;6261134;28;20056;-68
2022/03/12 03:05:46;;;;;;;8.13;3.45;;;15.50;33.20;;;;;;6254099;28;20073;-67
2022/03/12 03:08:47;;;;;;;6.00;2.83;;;15.50;33.30;;;;;;6252509;28;20347;-67
2022/03/12 03:11:48;;;;;;;8.43;3.45;;;15.50;33.60;;;;;;6257644;28;20036;-68
2022/03/12 03:14:49;;;;;;;8.18;2.88;;;15.40;33.80;;;;;;6255227;28;20045;-68
2022/03/12 03:17:50;;;;;;;7.15;2.22;;;15.30;33.90;;;;;;6260370;28;20398;-68
2022/03/12 03:20:53;;;;;;;6.45;2.63;;;15.30;33.90;;;;;;6258539;28;20098;-68
2022/03/12 03:23:54;;;;;;;4.28;2.33;;;15.30;34.00;;;;;;6263857;28;20044;-68
2022/03/12 03:26:57;;;;;;;10.45;2.90;;;15.30;34.00;;;;;;6244869;28;20073;-68
2022/03/12 03:29:58;;;;;;;5.20;2.92;;;15.20;34.10;;;;;;6257736;28;20032;-68
2022/03/12 03:32:59;;;;;;;6.13;2.75;;;15.20;34.50;;;;;;6263081;28;20496;-68
2022/03/12 03:36:00;;;;;;;12.77;3.25;;;15.10;34.70;;;;;;6265245;28;20033;-68
2022/03/12 03:39:01;;;;;;;12.60;3.22;;;15.10;34.80;;;;;;6253515;28;20037;-67
2022/03/12 03:42:02;;;;;;;10.88;2.92;;;15.10;35.00;;;;;;6261300;28;20065;-67
2022/03/12 03:45:04;;;;;;;14.80;3.42;;;15.10;34.90;;;;;;6258270;28;20350;-67
2022/03/12 03:48:12;;;;;;;7.75;3.25;;;15.00;35.00;;;;;;6239721;28;20082;-69
2022/03/12 03:51:13;;;;;;;8.32;3.38;;;15.00;35.20;;;;;;6265165;28;20496;-68
2022/03/12 03:54:15;;;;;;;5.95;3.13;;;14.90;35.30;;;;;;6267331;28;20045;-68
2022/03/12 03:57:17;;;;;;;10.95;3.08;;;14.90;35.30;;;;;;6254635;28;20056;-67
2022/03/12 04:00:21;;;;;;;8.65;3.10;;;14.90;35.20;;;;;;6257439;28;20424;-68
2022/03/12 04:03:22;;;;;;;8.02;3.15;;;15.00;35.40;;;;;;6258342;28;20370;-68
2022/03/12 04:06:25;;;;;;;5.78;2.58;;;15.00;35.40;;;;;;6259402;28;20065;-68
2022/03/12 04:09:25;;;;;;;7.18;3.05;;;15.00;35.40;;;;;;6251583;28;20061;-67
2022/03/12 04:12:26;;;;;;;7.80;2.80;;;15.00;35.50;;;;;;6256245;28;20348;-67
2022/03/12 04:15:31;;;;;;;9.40;3.30;;;15.00;36.30;;;;;;6264401;28;20025;-68
2022/03/12 04:18:37;;;;;;;7.90;3.13;;;14.90;35.70;;;;;;6251800;28;20389;-68
2022/03/12 04:21:38;;;;;;;6.07;2.83;;;14.90;35.80;;;;;;6252679;28;20120;-67
2022/03/12 04:24:39;;;;;;;7.22;3.30;;;14.90;35.80;;;;;;6266216;28;20497;-68
2022/03/12 04:27:42;;;;;;;5.45;2.90;;;14.90;35.80;;;;;;6255424;28;20037;-68
2022/03/12 04:30:43;;;;;;;5.05;2.72;;;14.90;35.80;;;;;;6262208;28;20059;-68
2022/03/12 04:33:45;;;;;;;4.47;2.70;;;14.90;35.80;;;;;;6255253;28;20037;-67
2022/03/12 04:36:46;;;;;;;7.10;2.88;;;14.90;35.70;;;;;;6259101;28;20074;-68
2022/03/12 04:39:51;;;;;;;6.40;2.60;;;14.90;35.70;;;;;;6256945;28;20455;-68
2022/03/12 04:42:53;;;;;;;5.53;2.95;;;14.90;35.50;;;;;;6257032;28;20353;-67
2022/03/12 04:45:55;;;;;;;6.55;2.80;;;15.00;35.60;;;;;;6259130;28;20034;-67
2022/03/12 04:48:56;;;;;;;5.80;2.55;;;15.00;35.50;;;;;;6240412;28;20029;-67
2022/03/12 04:51:58;;;;;;;4.35;2.25;;;15.00;35.50;;;;;;6241097;28;20029;-67
2022/03/12 04:55:06;;;;;;;4.28;2.58;;;15.00;35.40;;;;;;6257169;28;20477;-67
2022/03/12 04:58:09;;;;;;;5.40;2.42;;;15.00;35.50;;;;;;6249271;28;20106;-68
2022/03/12 05:01:11;;;;;;;7.15;2.70;;;15.00;35.50;;;;;;6260645;28;20042;-68
2022/03/12 05:04:11;;;;;;;7.03;2.78;;;15.00;35.50;;;;;;6261427;28;20375;-68
2022/03/12 05:07:14;;;;;;;5.15;2.50;;;15.00;35.60;;;;;;6255933;28;20056;-68
2022/03/12 05:10:19;;;;;;;6.97;2.70;;;15.00;35.60;;;;;;6259419;28;20462;-67
2022/03/12 05:13:27;;;;;;;8.95;3.35;;;15.00;35.80;;;;;;6226972;28;20030;-68
2022/03/12 05:16:28;;;;;;;5.20;2.58;;;15.00;35.80;;;;;;6249061;28;20026;-67
2022/03/12 05:19:30;;;;;;;6.03;2.53;;;14.90;35.80;;;;;;6250221;28;20110;-68
2022/03/12 05:22:30;;;;;;;6.13;2.40;;;14.90;35.90;;;;;;6266766;28;20430;-67
2022/03/12 05:25:32;;;;;;;6.60;2.70;;;14.80;35.90;;;;;;6269469;28;20037;-68
2022/03/12 05:28:33;;;;;;;10.50;2.67;;;14.90;36.00;;;;;;6265453;28;20112;-67
2022/03/12 05:31:35;;;;;;;12.48;2.88;;;14.80;36.00;;;;;;6260460;28;20113;-68
2022/03/12 05:34:36;;;;;;;7.30;2.42;;;14.80;36.00;;;;;;6256560;28;20039;-68
2022/03/12 05:37:41;;;;;;;5.90;2.20;;;14.80;36.00;;;;;;6259617;28;20375;-67
2022/03/12 05:40:42;;;;;;;5.75;2.22;;;14.80;35.90;;;;;;6262307;28;20422;-68
2022/03/12 05:43:46;;;;;;;4.43;2.20;;;14.80;35.90;;;;;;6261898;28;20037;-67
2022/03/12 05:46:46;;;;;;;5.78;1.70;;;14.80;36.00;;;;;;6262524;28;20102;-67
2022/03/12 05:49:48;;;;;;;4.90;1.95;;;14.80;35.90;;;;;;6260943;28;20033;-67
2022/03/12 05:52:49;;;;;;;3.63;1.83;;;14.70;35.90;;;;;;6258647;28;20034;-69
2022/03/12 05:55:50;;;;;;;12.98;1.88;;;14.70;36.10;;;;;;6244534;28;20029;-68
2022/03/12 05:58:51;;;;;;;4.45;1.90;;;14.70;36.00;;;;;;6256996;28;20438;-68
2022/03/12 06:01:51;;;;;;;7.30;1.95;;;14.70;36.10;;;;;;6267456;28;20219;-69
2022/03/12 06:04:53;;;;;;;2.97;1.88;;;14.70;36.10;;;;;;6260393;28;20037;-69
2022/03/12 06:07:54;;;;;;;5.57;1.95;;;14.60;36.20;;;;;;6249825;28;20061;-68
2022/03/12 06:10:56;;;;;;;3.40;1.90;;;14.60;36.30;;;;;;6236892;28;20034;-68
2022/03/12 06:13:59;;;;;;;5.95;2.20;;;14.60;36.40;;;;;;6239793;28;20052;-68
2022/03/12 06:17:00;;;;;;;3.97;2.17;;;14.60;36.50;;;;;;6235744;28;20038;-68
2022/03/12 06:20:01;;;;;;;4.43;2.13;;;14.60;36.50;;;;;;6234518;28;20033;-68
2022/03/12 06:23:02;;;;;;;4.95;2.13;;;14.60;36.60;;;;;;6234302;28;20048;-69
2022/03/12 06:26:04;;;;;;;8.40;2.08;;;14.60;36.60;;;;;;6211411;28;20041;-69
2022/03/12 06:29:13;;;;;;;2.78;1.58;;;14.70;36.60;;;;;;6236616;28;20482;-70
2022/03/12 06:32:14;;;;;;;3.47;1.80;;;14.60;36.80;;;;;;6230941;28;20064;-69
2022/03/12 06:35:16;;;;;;;3.13;1.75;;;14.60;36.80;;;;;;6234728;28;20449;-69
2022/03/12 06:38:18;;;;;;;6.35;1.98;;;14.60;36.80;;;;;;6234989;28;20034;-69
2022/03/12 06:41:20;;;;;;;7.10;2.10;;;14.70;36.80;;;;;;6232430;28;20394;-69
2022/03/12 06:44:21;;;;;;;3.80;1.70;;;14.70;36.80;;;;;;6241714;28;20566;-69
2022/03/12 06:47:28;;;;;;;3.50;1.83;;;14.70;36.80;;;;;;6237152;28;20386;-68
2022/03/12 06:50:29;;;;;;;6.97;2.33;;;14.70;36.80;;;;;;6233831;28;20502;-68
2022/03/12 06:53:30;;;;;;;3.95;2.30;;;14.80;36.80;;;;;;6247558;28;20520;-69
2022/03/12 06:56:38;;;;;;;2.88;1.70;;;14.80;36.80;;;;;;6253972;28;20071;-69
2022/03/12 06:59:39;;;;;;;2.70;1.67;;;14.80;36.80;;;;;;6256060;28;20033;-69
2022/03/12 07:02:43;;;;;;;4.75;1.90;;;14.80;36.90;;;;;;6251760;28;20062;-70
2022/03/12 07:05:44;;;;;;;5.55;1.88;;;14.80;37.00;;;;;;6250094;28;20041;-68
2022/03/12 07:08:45;;;;;;;6.00;2.33;;;14.90;37.10;;;;;;6257234;28;20367;-68
2022/03/12 07:11:46;;;;;;;4.82;1.80;;;14.80;37.20;;;;;;6248563;28;20136;-69
2022/03/12 07:14:46;;;;;;;10.05;2.25;;;14.80;37.20;;;;;;6222348;28;20455;-69
2022/03/12 07:17:50;;;;;;;3.85;2.10;;;14.80;37.20;;;;;;6231895;28;20494;-67
2022/03/12 07:20:51;;;;;;;4.05;2.20;;;14.90;37.20;;;;;;6225345;28;20054;-68
2022/03/12 07:23:51;;;;;;;8.30;2.03;;;14.80;37.20;;;;;;6233449;28;20041;-68
2022/03/12 07:26:52;;;;;;;3.83;1.70;;;14.90;37.30;;;;;;6234398;28;20052;-69
2022/03/12 07:29:54;;;;;;;5.72;2.30;;;14.90;37.20;;;;;;6229010;28;20494;-67
2022/03/12 07:32:55;;;;;;;6.28;2.38;;;14.90;37.20;;;;;;6232051;28;20037;-69
2022/03/12 07:35:56;;;;;;;3.15;1.95;;;15.00;37.30;;;;;;6245950;28;20048;-67
2022/03/12 07:38:58;;;;;;;3.40;1.83;;;15.00;37.20;;;;;;6255411;28;20120;-68
2022/03/12 07:42:02;;;;;;;4.97;1.90;;;15.00;37.20;;;;;;6221797;28;20030;-68
2022/03/12 07:45:07;;;;;;;4.65;2.28;;;15.10;37.30;;;;;;6228212;28;20391;-68
2022/03/12 07:48:09;;;;;;;9.52;2.60;;;15.00;37.30;;;;;;6252809;28;20029;-68
2022/03/12 07:51:13;;;;;;;3.75;2.15;;;15.00;37.50;;;;;;6203340;28;20030;-70
2022/03/12 07:54:19;;;;;;;4.93;2.58;;;15.00;37.70;;;;;;6209720;28;20041;-69
2022/03/12 07:57:26;;;;;;;5.30;2.53;;;15.10;37.80;;;;;;6213543;28;20132;-69
2022/03/12 08:00:30;;;;;;;5.20;2.47;;;15.10;37.80;;;;;;6248057;28;20133;-68
2022/03/12 08:03:31;;;;;;;6.55;2.15;;;15.10;37.80;;;;;;6245975;28;20382;-68
2022/03/12 12:48:14;;;;;;;6.32;3.22;;;20.50;29.90;;;;;;6541819;23;20040;-67
2022/03/12 12:51:29;;;;;;;11.20;3.60;;;20.60;30.00;;;;;;6123291;28;20063;-66
2022/03/12 12:55:01;;;;;;;11.93;3.78;;;20.70;29.80;;;;;;6123146;28;20098;-67
2022/03/12 12:58:02;;;;;;;8.63;3.67;;;20.70;29.70;;;;;;6121238;28;20236;-67
2022/03/12 13:01:03;;;;;;;6.75;3.50;;;20.60;29.70;;;;;;6105789;28;20042;-67
2022/03/12 13:04:06;;;;;;;9.45;3.95;;;20.60;29.70;;;;;;6121663;28;20050;-67
2022/03/12 13:07:21;;;;;;;8.88;3.47;;;20.60;29.80;;;;;;6123538;28;20385;-67
2022/03/12 13:10:28;;;;;;;15.65;3.70;;;20.70;29.80;;;;;;6123140;28;20048;-68
2022/03/12 13:13:31;;;;;;;6.70;3.50;;;20.70;29.70;;;;;;6123387;28;20040;-66
2022/03/12 13:16:53;;;;;;;5.18;3.33;;;20.60;29.70;;;;;;6122140;28;20050;-67
2022/03/12 13:19:55;;;;;;;8.40;3.88;;;20.50;29.80;;;;;;6121892;28;20123;-68
2022/03/12 13:22:59;;;;;;;7.57;3.47;;;20.40;29.90;;;;;;6122024;28;20042;-67
2022/03/12 13:26:00;;;;;;;6.68;3.55;;;20.30;29.90;;;;;;6122374;28;20043;-68
2022/03/12 13:29:08;;;;;;;9.45;3.83;;;20.20;30.00;;;;;;6121687;28;20476;-68
2022/03/12 13:32:30;;;;;;;8.88;3.60;;;20.00;30.10;;;;;;6122187;28;20046;-67
2022/03/12 13:35:31;;;;;;;6.55;3.53;;;19.80;30.60;;;;;;6123172;28;20042;-68
2022/03/12 13:38:32;;;;;;;6.65;3.25;;;19.60;30.80;;;;;;6121953;28;20448;-68
2022/03/12 13:41:35;;;;;;;8.80;3.80;;;19.40;31.10;;;;;;6122241;28;20063;-67
2022/03/12 13:44:36;;;;;;;6.43;3.35;;;19.30;31.40;;;;;;6123169;28;20473;-68
2022/03/12 13:47:37;;;;;;;7.65;3.30;;;19.30;31.60;;;;;;6123896;28;20059;-67
2022/03/12 13:50:39;;;;;;;6.43;3.28;;;19.40;31.50;;;;;;6126986;28;20588;-67
2022/03/12 13:53:39;;;;;;;7.28;2.90;;;19.50;31.30;;;;;;6127340;28;20412;-68
2022/03/12 13:56:42;;;;;;;7.45;3.45;;;19.60;31.30;;;;;;6125940;28;20135;-68
2022/03/12 13:59:43;;;;;;;10.63;3.38;;;19.50;31.20;;;;;;6102931;29;20044;-68
2022/03/12 14:02:50;;;;;;;7.28;2.90;;;19.50;31.20;;;;;;6101915;29;20187;-68
2022/03/12 14:05:52;;;;;;;8.77;3.55;;;19.50;31.30;;;;;;6076955;29;20070;-67
2022/03/12 14:08:56;;;;;;;5.32;2.97;;;19.50;32.10;;;;;;6102698;29;20036;-67
2022/03/12 14:11:57;;;;;;;4.85;2.53;;;19.50;31.60;;;;;;6084632;29;20040;-70
2022/03/12 14:15:03;;;;;;;7.28;3.08;;;19.50;31.60;;;;;;6102294;29;20032;-68
2022/03/12 14:18:07;;;;;;;4.75;2.75;;;19.50;31.60;;;;;;6108153;28;20509;-67
2022/03/12 14:21:12;;;;;;;6.28;2.58;;;19.60;31.60;;;;;;6123921;28;20440;-68
2022/03/12 14:24:17;;;;;;;4.03;2.80;;;19.60;31.60;;;;;;6108858;28;20040;-68
2022/03/12 14:27:17;;;;;;;4.30;2.63;;;19.60;31.60;;;;;;6124484;28;20046;-68
2022/03/12 14:30:19;;;;;;;4.72;3.00;;;19.60;31.60;;;;;;6124483;28;20040;-68
2022/03/12 14:33:20;;;;;;;7.43;3.38;;;19.50;31.70;;;;;;6123209;28;20040;-68
2022/03/12 14:36:21;;;;;;;6.53;3.30;;;19.40;31.80;;;;;;6124558;28;20042;-67
2022/03/12 14:39:24;;;;;;;6.45;2.85;;;19.40;31.90;;;;;;6118335;28;20073;-66
2022/03/12 14:42:25;;;;;;;9.45;3.60;;;19.40;31.70;;;;;;6122714;28;20323;-68
2022/03/12 14:45:27;;;;;;;10.63;3.08;;;19.40;31.70;;;;;;6125554;28;20114;-67
2022/03/12 14:48:29;;;;;;;14.80;3.67;;;19.40;31.60;;;;;;6121035;28;20075;-67
2022/03/12 14:51:31;;;;;;;9.82;3.28;;;19.40;31.50;;;;;;6125309;28;20094;-68
2022/03/12 14:54:39;;;;;;;9.45;3.10;;;19.50;31.50;;;;;;6124272;28;20035;-68
2022/03/12 14:57:41;;;;;;;6.80;3.38;;;19.50;31.50;;;;;;6122788;28;20036;-68
2022/03/12 15:00:42;;;;;;;6.00;3.22;;;19.60;31.50;;;;;;6124769;28;20032;-68
2022/03/12 15:03:51;;;;;;;5.82;3.20;;;19.60;31.50;;;;;;6123034;28;20083;-68
2022/03/12 15:07:05;;;;;;;7.05;3.30;;;19.50;31.60;;;;;;6126607;28;20039;-68
2022/03/12 15:10:09;;;;;;;6.43;3.25;;;19.50;31.80;;;;;;6108904;28;20405;-68
2022/03/12 15:13:12;;;;;;;7.30;3.17;;;19.40;31.90;;;;;;6125629;28;20036;-68
2022/03/12 15:16:27;;;;;;;5.28;2.85;;;19.30;32.00;;;;;;6124860;28;20042;-69
2022/03/12 15:19:31;;;;;;;6.32;3.47;;;19.20;32.00;;;;;;6123274;28;20039;-68
2022/03/12 15:22:33;;;;;;;6.30;3.47;;;19.20;31.90;;;;;;6125884;28;20046;-68
2022/03/12 15:25:36;;;;;;;8.63;3.28;;;19.10;31.70;;;;;;6107383;29;20059;-67
2022/03/12 15:28:46;;;;;;;6.80;2.83;;;19.00;31.70;;;;;;6124061;29;20035;-68
2022/03/12 15:31:47;;;;;;;5.03;3.15;;;19.00;31.70;;;;;;6124842;29;20130;-69
2022/03/12 15:34:51;;;;;;;9.02;3.70;;;19.10;31.80;;;;;;6123983;29;20035;-67
2022/03/12 15:37:52;;;;;;;8.43;3.50;;;18.90;31.70;;;;;;6123680;29;20039;-67
2022/03/12 15:40:53;;;;;;;10.35;3.17;;;18.90;31.70;;;;;;6124852;29;20429;-68
2022/03/12 15:43:59;;;;;;;8.30;3.22;;;18.90;31.70;;;;;;6123861;29;20087;-68
2022/03/12 15:47:00;;;;;;;6.65;3.17;;;18.90;31.70;;;;;;6123864;29;20059;-68
2022/03/12 15:50:03;;;;;;;6.25;3.38;;;19.00;31.60;;;;;;6103986;28;20036;-68
2022/03/12 15:53:07;;;;;;;8.05;3.22;;;19.00;31.60;;;;;;6102771;29;20434;-66
2022/03/12 15:56:14;;;;;;;10.07;3.55;;;18.90;31.70;;;;;;6103110;29;20116;-67
2022/03/12 15:59:16;;;;;;;5.60;3.08;;;18.80;31.90;;;;;;6103833;29;20059;-67
2022/03/12 16:02:17;;;;;;;8.73;3.78;;;18.80;32.10;;;;;;6102016;29;20135;-68
2022/03/12 16:05:18;;;;;;;5.82;3.20;;;18.70;32.30;;;;;;6102918;29;20040;-67
2022/03/12 16:08:26;;;;;;;8.50;3.22;;;18.80;32.40;;;;;;6101611;29;20123;-67
2022/03/12 16:11:33;;;;;;;7.53;3.15;;;18.70;32.30;;;;;;6101554;29;20048;-68
2022/03/12 16:14:35;;;;;;;7.60;3.13;;;18.70;32.30;;;;;;6085081;29;20048;-68
2022/03/12 16:17:49;;;;;;;4.47;2.83;;;18.70;32.30;;;;;;6104624;28;20194;-67
2022/03/12 16:20:56;;;;;;;6.22;2.85;;;18.60;32.40;;;;;;6125675;28;20039;-67
2022/03/12 16:23:58;;;;;;;6.22;3.25;;;18.50;32.40;;;;;;6125890;28;20061;-68
2022/03/12 16:27:00;;;;;;;6.25;2.85;;;18.50;32.60;;;;;;6113045;29;20036;-68
2022/03/12 16:30:04;;;;;;;5.28;2.70;;;18.50;32.60;;;;;;6125982;29;20094;-66
2022/03/12 16:33:05;;;;;;;11.35;3.50;;;18.40;32.70;;;;;;6125631;29;20032;-67
2022/03/12 16:36:06;;;;;;;12.40;2.83;;;18.40;32.80;;;;;;6125696;29;20094;-68
2022/03/12 16:39:09;;;;;;;4.82;2.58;;;18.30;32.90;;;;;;6124803;29;20373;-67
2022/03/12 16:42:10;;;;;;;8.98;3.10;;;18.30;33.20;;;;;;6125538;29;20047;-67
2022/03/12 16:45:12;;;;;;;4.70;2.40;;;18.20;33.30;;;;;;6126701;29;20040;-68
2022/03/12 16:48:14;;;;;;;6.10;2.47;;;18.10;33.40;;;;;;6124865;29;20051;-68
2022/03/12 16:51:14;;;;;;;4.45;2.30;;;18.10;33.60;;;;;;6124583;28;20062;-67
2022/03/12 16:54:18;;;;;;;7.55;2.60;;;18.10;33.70;;;;;;6125430;28;20040;-68
2022/03/12 16:57:21;;;;;;;4.20;2.10;;;18.10;34.50;;;;;;6125431;28;20126;-68
2022/03/12 17:00:26;;;;;;;4.90;2.15;;;18.00;33.90;;;;;;6124401;28;20135;-67
2022/03/12 17:03:27;;;;;;;4.85;2.40;;;18.00;34.00;;;;;;6117584;29;20054;-66
2022/03/12 17:06:28;;;;;;;4.93;2.60;;;17.90;34.00;;;;;;6124664;28;20115;-67
2022/03/12 17:09:29;;;;;;;8.00;1.90;;;17.90;34.30;;;;;;6107280;29;20129;-67
2022/03/12 17:12:31;;;;;;;10.57;2.70;;;17.90;34.30;;;;;;6109926;29;20044;-67
2022/03/12 17:15:32;;;;;;;5.72;2.10;;;17.80;34.40;;;;;;6117617;28;20040;-68
2022/03/12 17:18:32;;;;;;;6.20;2.30;;;17.80;34.50;;;;;;6123433;28;20054;-67
2022/03/12 17:21:39;;;;;;;6.45;3.05;;;17.70;34.50;;;;;;6113305;29;20155;-66
2022/03/12 17:24:41;;;;;;;5.68;2.10;;;17.70;34.50;;;;;;6124993;29;20040;-68
2022/03/12 17:27:43;;;;;;;8.40;2.80;;;17.70;34.60;;;;;;6106131;29;20131;-68
2022/03/12 17:30:44;;;;;;;4.70;2.22;;;17.70;34.70;;;;;;6106532;29;20127;-67
2022/03/12 17:33:44;;;;;;;6.60;2.10;;;17.70;34.90;;;;;;6106832;29;20090;-67
2022/03/12 17:36:46;;;;;;;5.35;2.45;;;17.60;34.90;;;;;;6106134;29;20462;-68
2022/03/12 17:39:47;;;;;;;11.32;4.05;;;17.50;35.00;;;;;;6105215;28;20044;-68
2022/03/12 17:42:49;;;;;;;5.13;2.65;;;17.50;35.00;;;;;;6106466;29;20040;-67
2022/03/12 17:45:53;;;;;;;4.65;2.17;;;17.50;35.20;;;;;;6099053;29;20388;-67
2022/03/12 17:48:54;;;;;;;4.72;2.55;;;17.40;35.40;;;;;;6100598;29;20040;-68
2022/03/12 17:51:55;;;;;;;5.82;2.78;;;17.40;35.50;;;;;;6123349;28;20052;-67
2022/03/12 17:54:57;;;;;;;5.68;2.45;;;17.30;35.70;;;;;;6114179;29;20039;-67
2022/03/12 17:57:58;;;;;;;4.07;2.10;;;17.30;35.90;;;;;;6113362;29;20062;-68
2022/03/12 18:00:59;;;;;;;4.85;2.30;;;17.20;36.20;;;;;;6116965;28;20051;-68
2022/03/12 18:04:00;;;;;;;3.58;1.90;;;17.20;36.40;;;;;;6116841;28;20095;-68
2022/03/12 18:07:02;;;;;;;4.97;2.42;;;17.10;36.70;;;;;;6113302;29;20032;-67
2022/03/12 18:10:07;;;;;;;4.15;2.20;;;17.10;36.90;;;;;;6113653;28;20042;-68
2022/03/12 18:13:08;;;;;;;6.60;2.53;;;17.10;37.10;;;;;;6127767;28;20040;-68
2022/03/12 18:16:09;;;;;;;5.45;2.20;;;17.00;37.30;;;;;;6110535;28;20508;-68
2022/03/12 18:19:10;;;;;;;4.28;2.15;;;17.00;37.40;;;;;;6125444;28;20123;-68
2022/03/12 18:22:11;;;;;;;7.60;2.63;;;17.00;37.60;;;;;;6126299;28;20139;-67
2022/03/12 18:25:15;;;;;;;7.80;2.25;;;16.90;37.70;;;;;;6124960;28;20032;-67
2022/03/12 18:28:24;;;;;;;3.92;2.17;;;16.80;37.80;;;;;;6124810;28;20046;-70
2022/03/12 18:31:29;;;;;;;9.27;2.85;;;16.80;38.00;;;;;;6101720;29;20048;-68
2022/03/12 18:34:31;;;;;;;2.63;1.63;;;16.70;38.00;;;;;;6111201;28;20063;-70
2022/03/12 18:37:33;;;;;;;5.45;1.88;;;16.70;38.20;;;;;;6117413;28;20028;-68
2022/03/12 18:40:36;;;;;;;4.43;2.00;;;16.70;38.40;;;;;;6116274;28;20173;-68
2022/03/12 18:43:38;;;;;;;4.38;2.05;;;16.60;38.50;;;;;;6116151;28;20823;-68
2022/03/12 18:46:40;;;;;;;4.15;2.33;;;16.60;38.80;;;;;;6093058;29;20044;-67
2022/03/12 18:49:47;;;;;;;4.50;2.45;;;16.50;38.90;;;;;;6112809;28;20095;-67
2022/03/12 18:52:49;;;;;;;4.68;2.08;;;16.50;39.10;;;;;;6104114;29;20031;-69
2022/03/12 18:55:52;;;;;;;3.00;1.80;;;16.40;39.40;;;;;;6101270;29;20032;-67
2022/03/12 18:58:54;;;;;;;3.92;1.90;;;16.40;39.60;;;;;;6117841;29;20137;-68
2022/03/12 19:01:55;;;;;;;4.40;1.98;;;16.30;39.70;;;;;;6118257;29;20059;-69
2022/03/12 19:04:57;;;;;;;4.55;2.10;;;16.30;40.00;;;;;;6098836;29;20059;-69
2022/03/12 19:08:07;;;;;;;7.93;2.10;;;16.20;40.20;;;;;;6108687;29;20031;-69
2022/03/12 19:11:16;;;;;;;8.13;2.30;;;16.20;40.40;;;;;;6103490;29;20397;-68
2022/03/12 19:14:17;;;;;;;4.88;2.53;;;16.10;40.50;;;;;;6092283;28;20043;-70
2022/03/12 19:17:19;;;;;;;5.13;2.70;;;16.10;40.80;;;;;;6116582;29;20488;-68
2022/03/12 19:20:20;;;;;;;5.97;2.55;;;16.00;41.00;;;;;;6105255;29;20036;-69
2022/03/12 19:23:24;;;;;;;6.85;2.05;;;16.00;41.30;;;;;;6088305;28;20369;-68
2022/03/12 19:26:26;;;;;;;3.95;2.42;;;15.90;41.50;;;;;;6107263;29;20046;-68
2022/03/12 19:29:28;;;;;;;4.88;2.30;;;15.90;41.70;;;;;;6100622;28;21021;-69
2022/03/12 19:32:28;;;;;;;5.85;2.70;;;15.90;41.70;;;;;;6085414;29;20525;-67
2022/03/12 19:35:30;;;;;;;5.75;2.83;;;15.80;41.90;;;;;;6093895;29;20044;-68
2022/03/12 19:38:31;;;;;;;7.75;2.97;;;15.80;42.00;;;;;;6095490;28;20055;-70
2022/03/12 19:41:32;;;;;;;6.38;2.50;;;15.80;42.00;;;;;;6097112;29;20044;-68
2022/03/12 19:44:35;;;;;;;9.13;2.70;;;15.80;42.10;;;;;;6100794;29;20050;-67
2022/03/12 19:47:37;;;;;;;6.28;2.72;;;15.70;42.30;;;;;;6103694;28;20126;-68
2022/03/12 19:50:38;;;;;;;11.27;3.17;;;15.70;42.40;;;;;;6116279;28;20032;-68
2022/03/12 19:53:40;;;;;;;7.13;2.78;;;15.60;42.50;;;;;;6114100;28;20111;-69
2022/03/12 19:56:41;;;;;;;4.43;3.00;;;15.60;42.60;;;;;;6114296;28;20031;-68
2022/03/12 19:59:44;;;;;;;6.78;3.42;;;15.60;42.90;;;;;;6116872;28;20241;-67
2022/03/12 20:02:46;;;;;;;14.35;3.28;;;15.50;43.10;;;;;;6116412;28;20043;-67
2022/03/12 20:05:49;;;;;;;7.10;2.83;;;15.50;43.20;;;;;;6117566;28;20044;-68
2022/03/12 20:08:52;;;;;;;9.48;3.55;;;15.50;43.30;;;;;;6112203;29;20040;-69
2022/03/12 20:11:53;;;;;;;6.18;2.72;;;15.40;43.40;;;;;;6121246;28;20059;-68
2022/03/12 20:14:55;;;;;;;8.23;2.83;;;15.40;43.50;;;;;;6121038;28;20039;-68
2022/03/12 20:17:58;;;;;;;10.88;3.78;;;15.30;44.10;;;;;;6121376;28;20456;-68
2022/03/12 20:20:59;;;;;;;6.13;2.95;;;15.30;43.60;;;;;;6119860;28;20365;-69
2022/03/12 20:24:01;;;;;;;6.53;3.20;;;15.40;43.70;;;;;;6110646;29;20123;-68
2022/03/12 20:27:05;;;;;;;7.35;3.13;;;15.30;43.90;;;;;;6118013;28;20035;-68
2022/03/12 20:30:07;;;;;;;5.38;3.15;;;15.30;44.20;;;;;;6116908;29;20028;-68
2022/03/12 20:33:08;;;;;;;5.47;3.47;;;15.20;44.50;;;;;;6116672;29;20074;-68